createdAt,value
2023-02-21T00:00:25.256Z,102027.39
2023-02-21T00:01:25.916Z,102026.55
2023-02-21T00:02:26.536Z,102025.55
2023-02-21T00:03:26.559Z,102024.80
2023-02-21T00:04:26.936Z,102023.54
2023-02-21T00:05:27.370Z,102022.47
2023-02-21T00:06:27.538Z,102021.90
2023-02-21T00:07:27.670Z,102021.05
2023-02-21T00:08:27.716Z,102020.56
2023-02-21T00:09:27.907Z,102019.96
2023-02-21T00:10:28.262Z,102019.13
2023-02-21T00:11:28.237Z,102019.22
2023-02-21T00:12:28.480Z,102018.28
2023-02-21T00:13:28.788Z,102017.80
2023-02-21T00:13:37.447Z,101993.22
2023-02-21T00:14:37.760Z,102009.42
2023-02-21T00:15:38.098Z,102008.70
2023-02-21T00:16:38.401Z,102008.34
2023-02-21T00:17:38.558Z,102007.94
2023-02-21T00:18:38.959Z,102008.03
2023-02-21T00:19:39.290Z,102008.34
2023-02-21T00:20:39.350Z,102008.03
2023-02-21T00:21:39.499Z,102008.27
2023-02-21T00:22:39.618Z,102008.28
2023-02-21T00:23:39.908Z,102007.93
2023-02-21T00:24:40.455Z,102008.17
2023-02-21T00:25:40.599Z,102007.78
2023-02-21T00:26:40.924Z,102007.11
2023-02-21T00:27:41.223Z,102006.92
2023-02-21T00:28:41.366Z,102006.17
2023-02-21T00:29:41.662Z,102005.43
2023-02-21T00:30:42.150Z,102005.50
2023-02-21T00:31:42.559Z,102005.41
2023-02-21T00:32:43.109Z,102005.17
2023-02-21T00:33:43.708Z,102004.42
2023-02-21T00:34:44.120Z,102004.09
2023-02-21T00:35:44.524Z,102003.09
2023-02-21T00:36:44.911Z,102002.57
2023-02-21T00:37:45.310Z,102001.84
2023-02-21T00:38:45.496Z,102000.66
2023-02-21T00:39:45.857Z,101999.83
2023-02-21T00:40:46.172Z,101999.25
2023-02-21T00:41:46.553Z,101998.33
2023-02-21T00:42:46.699Z,101997.64
2023-02-21T00:43:46.837Z,101996.75
2023-02-21T00:44:47.438Z,101996.16
2023-02-21T00:45:47.723Z,101995.64
2023-02-21T00:46:47.896Z,101994.89
2023-02-21T00:47:48.064Z,101994.41
2023-02-21T00:48:48.392Z,101993.98
2023-02-21T00:48:59.166Z,101974.16
2023-02-21T00:49:59.188Z,101982.36
2023-02-21T00:50:59.435Z,101981.59
2023-02-21T00:51:59.904Z,101981.67
2023-02-21T00:53:00.349Z,101981.67
2023-02-21T00:54:00.528Z,101981.84
2023-02-21T00:55:00.624Z,101981.58
2023-02-21T00:56:00.740Z,101981.75
2023-02-21T00:57:00.911Z,101981.52
2023-02-21T00:58:01.364Z,101981.27
2023-02-21T00:59:01.987Z,101981.33
2023-02-21T01:00:02.161Z,101981.74
2023-02-21T01:01:02.276Z,101981.66
2023-02-21T01:02:02.354Z,101981.59
2023-02-21T01:03:02.425Z,101982.10
2023-02-21T01:04:02.878Z,101982.33
2023-02-21T01:05:03.207Z,101983.17
2023-02-21T01:06:03.479Z,101983.43
2023-02-21T01:07:03.475Z,101984.08
2023-02-21T01:08:03.754Z,101983.84
2023-02-21T01:09:04.146Z,101984.25
2023-02-21T01:10:04.228Z,101984.52
2023-02-21T01:11:04.464Z,101984.42
2023-02-21T01:12:04.738Z,101983.83
2023-02-21T01:13:05.070Z,101983.83
2023-02-21T01:14:05.213Z,101983.33
2023-02-21T01:15:05.837Z,101983.09
2023-02-21T01:16:05.916Z,101983.24
2023-02-21T01:17:12.719Z,101983.00
2023-02-21T01:18:06.527Z,101982.59
2023-02-21T01:19:06.612Z,101982.58
2023-02-21T01:20:06.748Z,101982.67
2023-02-21T01:21:06.955Z,101982.66
2023-02-21T01:22:07.066Z,101982.59
2023-02-21T01:22:15.759Z,101976.66
2023-02-21T01:23:16.133Z,101981.36
2023-02-21T01:24:16.427Z,101981.02
2023-02-21T01:25:17.408Z,101981.17
2023-02-21T01:26:17.714Z,101980.77
2023-02-21T01:27:17.950Z,101981.26
2023-02-21T01:28:18.086Z,101981.52
2023-02-21T01:29:18.173Z,101982.67
2023-02-21T01:30:18.306Z,101982.93
2023-02-21T01:31:18.547Z,101983.43
2023-02-21T01:32:18.555Z,101984.27
2023-02-21T01:33:18.539Z,101985.34
2023-02-21T01:34:18.816Z,101986.03
2023-02-21T01:35:19.195Z,101986.52
2023-02-21T01:36:19.425Z,101987.28
2023-02-21T01:37:19.563Z,101988.20
2023-02-21T01:38:19.737Z,101988.77
2023-02-21T01:39:19.964Z,101990.05
2023-02-21T01:40:20.174Z,101990.45
2023-02-21T01:41:20.367Z,101991.12
2023-02-21T01:42:20.504Z,101992.30
2023-02-21T01:43:20.917Z,101992.37
2023-02-21T01:44:21.109Z,101992.95
2023-02-21T01:45:21.242Z,101993.38
2023-02-21T01:46:21.355Z,101993.63
2023-02-21T01:47:21.465Z,101993.96
2023-02-21T01:48:21.688Z,101993.70
2023-02-21T01:49:21.774Z,101994.11
2023-02-21T01:50:21.886Z,101994.29
2023-02-21T01:51:22.085Z,101994.27
2023-02-21T01:52:22.296Z,101994.55
2023-02-21T01:53:22.599Z,101995.03
2023-02-21T01:54:22.836Z,101995.30
2023-02-21T01:55:23.034Z,101995.38
2023-02-21T01:56:23.101Z,101995.87
2023-02-21T01:56:31.865Z,101986.17
2023-02-21T01:57:32.212Z,101999.54
2023-02-21T01:58:32.412Z,101998.89
2023-02-21T01:59:32.679Z,101998.20
2023-02-21T02:00:33.643Z,101997.55
2023-02-21T02:01:33.904Z,101996.52
2023-02-21T02:02:34.056Z,101995.87
2023-02-21T02:03:34.067Z,101995.02
2023-02-21T02:04:34.421Z,101994.45
2023-02-21T02:05:34.539Z,101993.86
2023-02-21T02:06:34.620Z,101993.61
2023-02-21T02:07:34.942Z,101993.28
2023-02-21T02:08:35.197Z,101993.02
2023-02-21T02:09:35.521Z,101992.86
2023-02-21T02:10:36.014Z,101992.45
2023-02-21T02:11:36.175Z,101992.02
2023-02-21T02:12:36.258Z,101991.25
2023-02-21T02:13:36.328Z,101990.53
2023-02-21T02:14:36.485Z,101989.77
2023-02-21T02:15:36.835Z,101989.17
2023-02-21T02:16:37.410Z,101988.41
2023-02-21T02:17:37.590Z,101987.85
2023-02-21T02:18:37.703Z,101986.77
2023-02-21T02:19:38.559Z,101986.09
2023-02-21T02:20:38.692Z,101984.93
2023-02-21T02:21:39.371Z,101984.16
2023-02-21T02:22:39.439Z,101983.59
2023-02-21T02:25:29.847Z,101967.76
2023-02-21T02:26:30.132Z,101981.12
2023-02-21T02:27:30.398Z,101980.88
2023-02-21T02:28:30.639Z,101980.36
2023-02-21T02:29:30.715Z,101980.47
2023-02-21T02:30:30.875Z,101980.39
2023-02-21T02:31:31.179Z,101980.46
2023-02-21T02:32:31.257Z,101979.95
2023-02-21T02:33:31.907Z,101979.80
2023-02-21T02:34:32.153Z,101979.55
2023-02-21T02:35:32.144Z,101979.13
2023-02-21T02:36:32.267Z,101978.80
2023-02-21T02:37:32.338Z,101979.05
2023-02-21T02:38:32.463Z,101978.63
2023-02-21T02:39:32.713Z,101977.55
2023-02-21T02:40:32.908Z,101977.38
2023-02-21T02:41:33.309Z,101976.63
2023-02-21T02:42:33.569Z,101976.22
2023-02-21T02:43:34.062Z,101975.80
2023-02-21T02:44:34.204Z,101975.45
2023-02-21T02:45:34.462Z,101975.30
2023-02-21T02:46:34.838Z,101974.56
2023-02-21T02:47:35.302Z,101973.89
2023-02-21T02:48:35.892Z,101974.05
2023-02-21T02:49:36.294Z,101973.64
2023-02-21T02:50:36.792Z,101973.47
2023-02-21T02:51:36.994Z,101973.13
2023-02-21T02:52:37.265Z,101972.54
2023-02-21T02:53:37.463Z,101971.89
2023-02-21T02:54:37.861Z,101970.88
2023-02-21T02:55:37.897Z,101970.70
2023-02-21T02:56:38.375Z,101970.12
2023-02-21T02:57:38.490Z,101969.54
2023-02-21T02:58:39.570Z,101969.45
2023-02-21T02:59:38.940Z,101969.34
2023-02-21T02:59:47.625Z,101959.60
2023-02-21T03:00:48.027Z,101965.09
2023-02-21T03:01:48.507Z,101964.50
2023-02-21T03:02:48.775Z,101964.50
2023-02-21T03:03:48.976Z,101964.16
2023-02-21T03:04:48.967Z,101963.59
2023-02-21T03:05:49.295Z,101963.27
2023-02-21T03:06:49.459Z,101962.77
2023-02-21T03:07:49.613Z,101962.77
2023-02-21T03:08:49.779Z,101962.27
2023-02-21T03:09:50.053Z,101961.92
2023-02-21T03:10:50.170Z,101961.42
2023-02-21T03:11:50.546Z,101961.17
2023-02-21T03:12:50.792Z,101960.57
2023-02-21T03:13:51.085Z,101960.24
2023-02-21T03:14:51.860Z,101959.81
2023-02-21T03:15:52.224Z,101959.98
2023-02-21T03:16:52.513Z,101959.16
2023-02-21T03:17:52.676Z,101958.99
2023-02-21T03:18:53.079Z,101958.17
2023-02-21T03:19:53.159Z,101958.34
2023-02-21T03:20:53.352Z,101957.66
2023-02-21T03:21:53.771Z,101957.81
2023-02-21T03:22:54.125Z,101957.23
2023-02-21T03:23:54.344Z,101956.48
2023-02-21T03:24:54.584Z,101955.41
2023-02-21T03:25:54.783Z,101954.30
2023-02-21T03:26:55.661Z,101953.98
2023-02-21T03:27:56.165Z,101953.62
2023-02-21T03:28:56.503Z,101953.13
2023-02-21T03:29:56.906Z,101952.72
2023-02-21T03:30:57.286Z,101952.70
2023-02-21T03:31:57.822Z,101952.38
2023-02-21T03:32:58.369Z,101952.20
2023-02-21T03:33:58.710Z,101951.62
2023-02-21T03:34:10.328Z,101934.98
2023-02-21T03:35:11.353Z,101946.66
2023-02-21T03:36:11.501Z,101946.66
2023-02-21T03:37:12.223Z,101947.00
2023-02-21T03:38:12.991Z,101946.77
2023-02-21T03:39:13.386Z,101947.11
2023-02-21T03:40:13.598Z,101947.34
2023-02-21T03:41:14.166Z,101947.25
2023-02-21T03:42:14.370Z,101947.09
2023-02-21T03:43:14.815Z,101947.03
2023-02-21T03:44:15.237Z,101947.10
2023-02-21T03:45:15.394Z,101947.52
2023-02-21T03:46:15.717Z,101948.02
2023-02-21T03:47:15.702Z,101948.17
2023-02-21T03:48:26.105Z,101948.52
2023-02-21T03:49:16.475Z,101948.84
2023-02-21T03:50:16.753Z,101949.77
2023-02-21T03:51:17.503Z,101950.44
2023-02-21T03:52:17.503Z,101950.68
2023-02-21T03:53:17.757Z,101951.25
2023-02-21T03:54:18.157Z,101951.27
2023-02-21T03:55:19.118Z,101951.77
2023-02-21T03:56:19.467Z,101952.11
2023-02-21T03:57:19.817Z,101952.44
2023-02-21T03:58:19.973Z,101953.20
2023-02-21T03:59:20.467Z,101953.53
2023-02-21T04:00:21.084Z,101954.11
2023-02-21T04:01:21.474Z,101955.53
2023-02-21T04:02:21.544Z,101955.95
2023-02-21T04:03:21.686Z,101957.02
2023-02-21T04:04:21.997Z,101958.09
2023-02-21T04:05:22.561Z,101958.53
2023-02-21T04:06:22.910Z,101959.11
2023-02-21T04:07:23.179Z,101959.61
2023-02-21T04:08:23.443Z,101960.61
2023-02-21T04:08:32.125Z,101960.69
2023-02-21T04:09:32.569Z,101973.19
2023-02-21T04:10:35.892Z,101972.45
2023-02-21T04:11:33.103Z,101972.11
2023-02-21T04:12:33.388Z,101970.96
2023-02-21T04:13:33.704Z,101969.94
2023-02-21T04:14:33.958Z,101969.12
2023-02-21T04:15:34.353Z,101968.69
2023-02-21T04:16:34.779Z,101968.09
2023-02-21T04:17:35.040Z,101967.70
2023-02-21T04:18:37.618Z,101967.78
2023-02-21T04:19:35.595Z,101967.25
2023-02-21T04:20:35.833Z,101966.94
2023-02-21T04:21:36.163Z,101966.52
2023-02-21T04:22:36.364Z,101966.42
2023-02-21T04:23:36.635Z,101965.69
2023-02-21T04:24:37.153Z,101965.19
2023-02-21T04:25:37.498Z,101964.69
2023-02-21T04:26:37.688Z,101964.01
2023-02-21T04:27:38.145Z,101963.17
2023-02-21T04:28:39.415Z,101962.41
2023-02-21T04:29:38.669Z,101962.09
2023-02-21T04:30:39.338Z,101961.66
2023-02-21T04:31:39.803Z,101961.61
2023-02-21T04:32:40.086Z,101961.34
2023-02-21T04:33:40.271Z,101961.08
2023-02-21T04:34:40.685Z,101960.49
2023-02-21T04:35:40.950Z,101960.27
2023-02-21T04:36:41.228Z,101959.59
2023-02-21T04:37:41.445Z,101959.14
2023-02-21T04:38:41.607Z,101958.66
2023-02-21T04:39:41.744Z,101958.31
2023-02-21T04:40:42.060Z,101957.38
2023-02-21T04:41:42.309Z,101956.88
2023-02-21T04:42:42.706Z,101955.31
2023-02-21T04:43:43.023Z,101955.14
2023-02-21T04:43:51.684Z,101935.37
2023-02-21T04:45:00.060Z,101951.56
2023-02-21T04:45:52.388Z,101950.80
2023-02-21T04:46:52.486Z,101950.73
2023-02-21T04:47:52.510Z,101949.89
2023-02-21T04:48:52.501Z,101949.48
2023-02-21T04:49:52.665Z,101948.31
2023-02-21T04:50:52.861Z,101948.24
2023-02-21T04:51:52.988Z,101947.58
2023-02-21T04:52:53.111Z,101947.14
2023-02-21T04:53:53.332Z,101946.64
2023-02-21T04:54:53.574Z,101945.91
2023-02-21T04:55:53.890Z,101945.41
2023-02-21T04:56:54.214Z,101944.65
2023-02-21T04:57:54.394Z,101944.31
2023-02-21T04:58:54.665Z,101943.89
2023-02-21T04:59:54.895Z,101943.48
2023-02-21T05:00:55.903Z,101943.15
2023-02-21T05:01:56.275Z,101942.48
2023-02-21T05:02:56.435Z,101941.72
2023-02-21T05:03:56.746Z,101941.39
2023-02-21T05:04:56.944Z,101940.88
2023-02-21T05:05:57.028Z,101940.23
2023-02-21T05:06:57.314Z,101939.55
2023-02-21T05:07:57.813Z,101939.62
2023-02-21T05:08:58.474Z,101939.30
2023-02-21T05:09:58.765Z,101938.87
2023-02-21T05:10:58.846Z,101938.05
2023-02-21T05:11:59.185Z,101937.79
2023-02-21T05:12:59.838Z,101937.36
2023-02-21T05:14:00.202Z,101937.47
2023-02-21T05:15:00.790Z,101937.80
2023-02-21T05:16:01.113Z,101937.71
2023-02-21T05:17:01.389Z,101937.86
2023-02-21T05:18:01.664Z,101938.36
2023-02-21T05:18:12.381Z,101935.04
2023-02-21T05:19:13.627Z,101948.53
2023-02-21T05:20:13.564Z,101947.86
2023-02-21T05:21:14.151Z,101947.12
2023-02-21T05:22:14.073Z,101945.95
2023-02-21T05:23:14.492Z,101945.55
2023-02-21T05:24:14.867Z,101944.95
2023-02-21T05:25:15.055Z,101944.69
2023-02-21T05:26:15.336Z,101944.20
2023-02-21T05:27:15.615Z,101943.45
2023-02-21T05:28:15.876Z,101943.62
2023-02-21T05:29:16.153Z,101943.44
2023-02-21T05:30:16.871Z,101943.54
2023-02-21T05:31:18.052Z,101943.45
2023-02-21T05:32:17.800Z,101943.77
2023-02-21T05:33:18.249Z,101944.53
2023-02-21T05:34:18.523Z,101944.84
2023-02-21T05:35:19.117Z,101945.42
2023-02-21T05:36:19.662Z,101945.53
2023-02-21T05:37:20.317Z,101945.77
2023-02-21T05:38:20.962Z,101945.84
2023-02-21T05:39:21.616Z,101946.02
2023-02-21T05:40:22.241Z,101945.84
2023-02-21T05:41:22.823Z,101946.17
2023-02-21T05:42:23.117Z,101945.86
2023-02-21T05:43:23.607Z,101945.93
2023-02-21T05:44:23.850Z,101945.84
2023-02-21T05:45:24.328Z,101946.67
2023-02-21T05:46:24.626Z,101946.52
2023-02-21T05:47:25.046Z,101946.95
2023-02-21T05:48:25.577Z,101946.95
2023-02-21T05:49:27.588Z,101947.61
2023-02-21T05:50:26.247Z,101946.84
2023-02-21T05:51:26.871Z,101946.33
2023-02-21T05:52:27.412Z,101946.60
2023-02-21T05:52:36.129Z,101930.81
2023-02-21T05:53:36.934Z,101950.49
2023-02-21T05:54:37.369Z,101949.99
2023-02-21T05:55:38.190Z,101949.75
2023-02-21T05:56:38.523Z,101949.16
2023-02-21T05:57:38.823Z,101948.83
2023-02-21T05:58:39.504Z,101948.56
2023-02-21T05:59:39.866Z,101948.23
2023-02-21T06:00:40.285Z,101947.98
2023-02-21T06:01:40.659Z,101946.90
2023-02-21T06:02:41.105Z,101946.73
2023-02-21T06:03:41.770Z,101945.90
2023-02-21T06:04:42.100Z,101945.98
2023-02-21T06:05:42.559Z,101945.06
2023-02-21T06:06:42.776Z,101945.06
2023-02-21T06:07:43.017Z,101945.00
2023-02-21T06:08:43.329Z,101945.00
2023-02-21T06:09:43.586Z,101945.00
2023-02-21T06:10:43.838Z,101944.74
2023-02-21T06:11:44.270Z,101944.81
2023-02-21T06:12:44.798Z,101944.39
2023-02-21T06:13:45.540Z,101944.06
2023-02-21T06:14:45.866Z,101944.25
2023-02-21T06:15:46.347Z,101943.82
2023-02-21T06:16:46.689Z,101943.89
2023-02-21T06:17:46.886Z,101944.47
2023-02-21T06:18:47.192Z,101943.55
2023-02-21T06:19:47.642Z,101943.06
2023-02-21T06:20:47.786Z,101942.81
2023-02-21T06:21:48.128Z,101942.80
2023-02-21T06:22:48.413Z,101942.38
2023-02-21T06:23:48.895Z,101942.53
2023-02-21T06:24:51.825Z,101942.97
2023-02-21T06:25:49.558Z,101943.38
2023-02-21T06:25:58.223Z,101946.95
2023-02-21T06:26:58.394Z,101950.61
2023-02-21T06:27:58.628Z,101949.94
2023-02-21T06:28:59.119Z,101950.11
2023-02-21T06:29:59.373Z,101949.55
2023-02-21T06:30:59.973Z,101949.55
2023-02-21T06:32:00.098Z,101949.88
2023-02-21T06:33:00.243Z,101949.79
2023-02-21T06:34:00.645Z,101949.36
2023-02-21T06:35:01.093Z,101949.36
2023-02-21T06:36:01.314Z,101949.79
2023-02-21T06:37:01.736Z,101949.88
2023-02-21T06:38:02.036Z,101949.71
2023-02-21T06:39:02.288Z,101949.77
2023-02-21T06:40:02.708Z,101949.87
2023-02-21T06:41:03.375Z,101950.12
2023-02-21T06:42:03.264Z,101949.46
2023-02-21T06:43:03.509Z,101949.80
2023-02-21T06:44:03.734Z,101949.39
2023-02-21T06:45:04.148Z,101948.88
2023-02-21T06:46:04.698Z,101948.45
2023-02-21T06:47:04.888Z,101948.61
2023-02-21T06:48:05.383Z,101948.61
2023-02-21T06:49:06.044Z,101948.55
2023-02-21T06:50:08.583Z,101948.14
2023-02-21T06:51:06.849Z,101948.30
2023-02-21T06:52:06.973Z,101948.80
2023-02-21T06:53:07.317Z,101948.53
2023-02-21T06:54:07.744Z,101948.95
2023-02-21T06:55:08.054Z,101949.05
2023-02-21T06:56:08.266Z,101948.97
2023-02-21T06:57:08.527Z,101949.80
2023-02-21T06:57:17.221Z,101944.16
2023-02-21T06:58:17.798Z,101960.34
2023-02-21T06:59:18.204Z,101959.34
2023-02-21T07:00:18.534Z,101958.41
2023-02-21T07:01:19.242Z,101958.07
2023-02-21T07:02:19.572Z,101957.08
2023-02-21T07:03:19.918Z,101956.41
2023-02-21T07:04:20.247Z,101955.91
2023-02-21T07:05:20.650Z,101955.33
2023-02-21T07:06:21.033Z,101954.42
2023-02-21T07:07:21.721Z,101954.08
2023-02-21T07:08:22.058Z,101952.67
2023-02-21T07:09:22.643Z,101951.76
2023-02-21T07:10:23.168Z,101950.91
2023-02-21T07:11:23.725Z,101949.83
2023-02-21T07:12:24.187Z,101948.94
2023-02-21T07:13:24.515Z,101948.02
2023-02-21T07:14:24.932Z,101947.01
2023-02-21T07:15:25.283Z,101946.95
2023-02-21T07:16:26.160Z,101946.10
2023-02-21T07:17:26.458Z,101945.53
2023-02-21T07:18:26.739Z,101944.77
2023-02-21T07:19:27.279Z,101943.86
2023-02-21T07:20:27.820Z,101942.67
2023-02-21T07:21:28.210Z,101941.61
2023-02-21T07:22:28.632Z,101941.09
2023-02-21T07:23:28.978Z,101939.76
2023-02-21T07:24:29.985Z,101938.94
2023-02-21T07:25:30.944Z,101938.52
2023-02-21T07:26:31.260Z,101937.77
2023-02-21T07:27:31.634Z,101937.95
2023-02-21T07:28:31.942Z,101937.19
2023-02-21T07:28:41.636Z,101924.56
2023-02-21T07:29:42.452Z,101932.75
2023-02-21T07:30:42.843Z,101932.08
2023-02-21T07:31:43.281Z,101932.17
2023-02-21T07:32:43.606Z,101932.07
2023-02-21T07:33:44.301Z,101931.41
2023-02-21T07:34:44.798Z,101931.25
2023-02-21T07:35:45.126Z,101930.68
2023-02-21T07:36:45.474Z,101930.07
2023-02-21T07:37:45.809Z,101930.42
2023-02-21T07:38:46.415Z,101930.19
2023-02-21T07:39:46.974Z,101930.17
2023-02-21T07:40:47.414Z,101929.98
2023-02-21T07:41:47.682Z,101930.44
2023-02-21T07:42:49.267Z,101930.69
2023-02-21T07:43:48.581Z,101930.17
2023-02-21T07:44:48.926Z,101930.28
2023-02-21T07:45:49.337Z,101930.86
2023-02-21T07:46:49.775Z,101931.18
2023-02-21T07:47:50.136Z,101931.52
2023-02-21T07:48:50.418Z,101932.45
2023-02-21T07:49:50.635Z,101932.45
2023-02-21T07:50:50.923Z,101932.80
2023-02-21T07:51:51.261Z,101933.53
2023-02-21T07:52:51.621Z,101933.89
2023-02-21T07:53:52.112Z,101933.95
2023-02-21T07:54:52.441Z,101934.72
2023-02-21T07:55:52.812Z,101935.31
2023-02-21T07:56:53.089Z,101936.05
2023-02-21T07:57:53.300Z,101936.39
2023-02-21T07:58:53.529Z,101936.48
2023-02-21T07:59:53.902Z,101936.98
2023-02-21T08:00:03.101Z,101932.02
2023-02-21T08:01:03.634Z,101952.58
2023-02-21T08:02:04.144Z,101951.82
2023-02-21T08:03:04.419Z,101951.08
2023-02-21T08:04:04.779Z,101950.08
2023-02-21T08:05:05.219Z,101949.47
2023-02-21T08:06:05.400Z,101948.30
2023-02-21T08:07:05.861Z,101947.39
2023-02-21T08:08:06.380Z,101946.13
2023-02-21T08:09:06.856Z,101945.32
2023-02-21T08:10:07.191Z,101944.22
2023-02-21T08:11:07.571Z,101943.31
2023-02-21T08:12:07.879Z,101941.91
2023-02-21T08:13:08.146Z,101940.89
2023-02-21T08:14:08.523Z,101939.98
2023-02-21T08:15:08.940Z,101938.87
2023-02-21T08:16:09.359Z,101937.73
2023-02-21T08:17:09.793Z,101937.05
2023-02-21T08:18:10.063Z,101936.23
2023-02-21T08:19:10.383Z,101935.39
2023-02-21T08:20:10.386Z,101935.32
2023-02-21T08:21:10.680Z,101934.55
2023-02-21T08:22:10.922Z,101933.81
2023-02-21T08:23:11.401Z,101933.81
2023-02-21T08:24:11.735Z,101933.05
2023-02-21T08:25:12.083Z,101931.97
2023-02-21T08:26:13.018Z,101931.06
2023-02-21T08:27:13.734Z,101930.47
2023-02-21T08:28:14.099Z,101929.56
2023-02-21T08:29:14.512Z,101928.71
2023-02-21T08:30:15.092Z,101927.45
2023-02-21T08:31:15.952Z,101926.55
2023-02-21T08:31:24.352Z,101900.42
2023-02-21T08:32:24.842Z,101914.80
2023-02-21T08:33:25.266Z,101914.13
2023-02-21T08:34:25.833Z,101913.39
2023-02-21T08:35:26.314Z,101912.72
2023-02-21T08:36:26.876Z,101911.61
2023-02-21T08:37:27.345Z,101910.77
2023-02-21T08:38:27.760Z,101910.20
2023-02-21T08:39:28.407Z,101908.78
2023-02-21T08:40:29.011Z,101907.77
2023-02-21T08:41:29.470Z,101907.11
2023-02-21T08:42:29.866Z,101906.16
2023-02-21T08:43:30.421Z,101905.44
2023-02-21T08:44:31.105Z,101904.75
2023-02-21T08:45:31.646Z,101903.91
2023-02-21T08:46:32.228Z,101902.91
2023-02-21T08:47:32.562Z,101901.65
2023-02-21T08:48:33.015Z,101900.81
2023-02-21T08:49:33.436Z,101899.72
2023-02-21T08:50:33.795Z,101898.79
2023-02-21T08:51:34.111Z,101897.30
2023-02-21T08:52:34.424Z,101896.61
2023-02-21T08:53:34.754Z,101895.28
2023-02-21T08:54:35.230Z,101894.53
2023-02-21T08:55:35.964Z,101893.36
2023-02-21T08:56:36.461Z,101892.95
2023-02-21T08:57:36.847Z,101892.09
2023-02-21T08:58:38.270Z,101890.78
2023-02-21T08:59:38.401Z,101889.92
2023-02-21T09:00:39.333Z,101889.26
2023-02-21T09:01:39.568Z,101888.42
2023-02-21T09:02:40.184Z,101887.16
2023-02-21T09:03:40.536Z,101886.75
2023-02-21T09:04:41.118Z,101886.16
2023-02-21T09:04:49.856Z,101878.72
2023-02-21T09:05:50.567Z,101887.76
2023-02-21T09:06:50.857Z,101886.75
2023-02-21T09:07:51.299Z,101886.59
2023-02-21T09:08:51.727Z,101886.02
2023-02-21T09:09:52.061Z,101885.50
2023-02-21T09:10:52.196Z,101885.15
2023-02-21T09:11:52.559Z,101884.33
2023-02-21T09:12:53.162Z,101883.73
2023-02-21T09:13:53.559Z,101882.73
2023-02-21T09:14:53.853Z,101881.72
2023-02-21T09:15:54.293Z,101880.64
2023-02-21T09:16:54.639Z,101880.04
2023-02-21T09:17:54.962Z,101878.69
2023-02-21T09:18:55.581Z,101877.84
2023-02-21T09:19:55.921Z,101877.09
2023-02-21T09:20:56.865Z,101876.31
2023-02-21T09:21:57.142Z,101875.73
2023-02-21T09:22:57.744Z,101875.15
2023-02-21T09:23:57.985Z,101874.63
2023-02-21T09:24:58.374Z,101873.72
2023-02-21T09:25:59.200Z,101873.62
2023-02-21T09:26:59.601Z,101873.09
2023-02-21T09:27:59.695Z,101872.68
2023-02-21T09:29:00.136Z,101872.16
2023-02-21T09:30:00.684Z,101871.50
2023-02-21T09:31:01.040Z,101870.97
2023-02-21T09:32:01.479Z,101870.87
2023-02-21T09:33:01.909Z,101870.45
2023-02-21T09:34:02.337Z,101870.72
2023-02-21T09:35:02.525Z,101870.67
2023-02-21T09:36:02.861Z,101871.09
2023-02-21T09:37:03.296Z,101871.06
2023-02-21T09:37:12.018Z,101866.45
2023-02-21T09:38:12.111Z,101885.22
2023-02-21T09:39:12.704Z,101883.95
2023-02-21T09:40:13.262Z,101883.19
2023-02-21T09:41:14.382Z,101882.06
2023-02-21T09:42:14.130Z,101880.66
2023-02-21T09:43:14.631Z,101878.90
2023-02-21T09:44:15.174Z,101876.87
2023-02-21T09:45:15.640Z,101874.16
2023-02-21T09:46:16.388Z,101870.85
2023-02-21T09:47:16.789Z,101867.45
2023-02-21T09:48:17.480Z,101863.11
2023-02-21T09:49:17.481Z,101858.57
2023-02-21T09:50:18.282Z,101854.09
2023-02-21T09:51:18.777Z,101849.25
2023-02-21T09:52:19.484Z,101844.34
2023-02-21T09:53:20.055Z,101838.95
2023-02-21T09:54:20.457Z,101834.05
2023-02-21T09:55:21.073Z,101828.99
2023-02-21T09:56:21.744Z,101824.00
2023-02-21T09:57:21.972Z,101819.31
2023-02-21T09:58:22.750Z,101814.96
2023-02-21T09:59:23.146Z,101811.52
2023-02-21T10:00:23.218Z,101807.58
2023-02-21T10:01:24.015Z,101805.03
2023-02-21T10:02:24.822Z,101802.50
2023-02-21T10:03:25.714Z,101800.32
2023-02-21T10:04:26.426Z,101798.38
2023-02-21T10:05:27.041Z,101796.66
2023-02-21T10:06:27.442Z,101795.18
2023-02-21T10:06:36.108Z,101795.55
2023-02-21T10:07:36.424Z,101777.42
2023-02-21T10:08:36.973Z,101777.77
2023-02-21T10:09:37.461Z,101777.73
2023-02-21T10:10:38.039Z,101778.81
2023-02-21T10:11:38.094Z,101779.91
2023-02-21T10:12:38.973Z,101780.91
2023-02-21T10:13:39.703Z,101782.08
2023-02-21T10:14:40.254Z,101783.58
2023-02-21T10:15:40.963Z,101784.75
2023-02-21T10:16:41.437Z,101786.05
2023-02-21T10:17:41.909Z,101787.36
2023-02-21T10:18:42.425Z,101789.36
2023-02-21T10:19:42.913Z,101790.33
2023-02-21T10:20:43.629Z,101791.92
2023-02-21T10:21:44.162Z,101793.35
2023-02-21T10:22:44.592Z,101794.08
2023-02-21T10:23:45.018Z,101795.41
2023-02-21T10:24:45.343Z,101795.92
2023-02-21T10:25:46.156Z,101796.63
2023-02-21T10:26:46.969Z,101797.19
2023-02-21T10:27:47.542Z,101798.26
2023-02-21T10:28:47.993Z,101798.95
2023-02-21T10:29:48.484Z,101799.98
2023-02-21T10:30:48.998Z,101800.88
2023-02-21T10:31:49.382Z,101802.34
2023-02-21T10:32:49.796Z,101803.23
2023-02-21T10:33:50.099Z,101804.53
2023-02-21T10:34:50.442Z,101805.50
2023-02-21T10:35:50.452Z,101806.76
2023-02-21T10:36:51.254Z,101807.70
2023-02-21T10:37:51.671Z,101808.62
2023-02-21T10:38:52.073Z,101808.86
2023-02-21T10:39:00.720Z,101835.25
2023-02-21T10:40:01.464Z,101817.08
2023-02-21T10:41:01.746Z,101817.03
2023-02-21T10:42:02.082Z,101816.99
2023-02-21T10:43:02.437Z,101817.01
2023-02-21T10:44:02.822Z,101817.65
2023-02-21T10:45:03.211Z,101818.26
2023-02-21T10:46:03.509Z,101818.91
2023-02-21T10:47:04.067Z,101819.46
2023-02-21T10:48:04.465Z,101819.84
2023-02-21T10:49:04.658Z,101820.37
2023-02-21T10:50:05.004Z,101820.98
2023-02-21T10:51:05.403Z,101821.70
2023-02-21T10:52:05.842Z,101822.57
2023-02-21T10:53:06.225Z,101823.25
2023-02-21T10:54:06.557Z,101823.89
2023-02-21T10:55:06.946Z,101824.31
2023-02-21T10:56:07.350Z,101824.81
2023-02-21T10:57:07.860Z,101825.67
2023-02-21T10:58:08.206Z,101826.27
2023-02-21T10:59:08.742Z,101826.01
2023-02-21T11:00:08.995Z,101825.95
2023-02-21T11:01:09.346Z,101825.69
2023-02-21T11:02:09.844Z,101825.51
2023-02-21T11:03:10.565Z,101824.94
2023-02-21T11:04:10.966Z,101824.45
2023-02-21T11:05:11.503Z,101823.20
2023-02-21T11:06:11.936Z,101822.25
2023-02-21T11:07:12.518Z,101821.09
2023-02-21T11:08:13.132Z,101820.64
2023-02-21T11:09:13.626Z,101820.52
2023-02-21T11:10:14.047Z,101819.77
2023-02-21T11:10:23.558Z,101834.77
2023-02-21T11:11:23.928Z,101822.26
2023-02-21T11:12:25.743Z,101822.00
2023-02-21T11:13:25.107Z,101822.00